createdAt,value
2023-02-07T00:01:11.479Z,103275.09
2023-02-07T00:03:38.084Z,103285.50
2023-02-07T00:06:06.779Z,103290.31
2023-02-07T00:08:33.143Z,103289.47
2023-02-07T00:11:04.589Z,103299.66
2023-02-07T00:13:30.955Z,103282.44
2023-02-07T00:15:57.331Z,103287.75
2023-02-07T00:18:23.694Z,103280.84
2023-02-07T00:21:01.273Z,103296.88
2023-02-07T00:23:27.995Z,103278.88
2023-02-07T00:25:54.407Z,103264.78
2023-02-07T00:28:20.903Z,103269.09
2023-02-07T00:30:47.498Z,103280.78
2023-02-07T00:33:14.463Z,103281.81
2023-02-07T00:35:40.976Z,103278.91
2023-02-07T00:38:07.417Z,103277.41
2023-02-07T00:40:33.828Z,103262.78
2023-02-07T00:43:00.242Z,103267.31
2023-02-07T00:45:26.638Z,103270.16
2023-02-07T00:47:53.022Z,103271.88
2023-02-07T00:50:19.497Z,103266.53
2023-02-07T00:52:45.862Z,103267.50
2023-02-07T00:55:12.251Z,103261.72
2023-02-07T00:57:38.609Z,103264.94
2023-02-07T01:00:05.442Z,103256.00
2023-02-07T01:02:31.839Z,103246.69
2023-02-07T01:05:00.083Z,103255.66
2023-02-07T01:07:26.515Z,103249.19
2023-02-07T01:09:52.887Z,103257.34
2023-02-07T01:12:19.283Z,103252.94
2023-02-07T01:14:45.669Z,103245.84
2023-02-07T01:17:12.054Z,103250.69
2023-02-07T01:19:38.418Z,103242.94
2023-02-07T01:22:05.873Z,103242.75
2023-02-07T01:24:32.259Z,103254.91
2023-02-07T01:26:58.645Z,103253.78
2023-02-07T01:29:25.042Z,103255.88
2023-02-07T01:31:51.671Z,103247.66
2023-02-07T01:34:18.113Z,103259.22
2023-02-07T01:36:44.526Z,103267.97
2023-02-07T01:39:11.229Z,103259.88
2023-02-07T01:41:38.103Z,103273.13
2023-02-07T01:44:21.660Z,103262.72
2023-02-07T01:46:48.683Z,103265.50
2023-02-07T01:49:18.685Z,103268.56
2023-02-07T01:51:48.637Z,103271.88
2023-02-07T01:54:16.134Z,103269.91
2023-02-07T01:56:48.943Z,103263.66
2023-02-07T01:59:15.520Z,103270.56
2023-02-07T02:01:42.290Z,103276.69
2023-02-07T02:04:08.688Z,103272.16
2023-02-07T02:06:35.259Z,103278.56
2023-02-07T02:09:07.308Z,103276.69
2023-02-07T02:12:14.772Z,103290.59
2023-02-07T02:14:47.196Z,103287.88
2023-02-07T02:17:22.781Z,103293.81
2023-02-07T02:19:55.216Z,103286.53
2023-02-07T02:22:28.506Z,103275.38
2023-02-07T02:25:03.850Z,103287.81
2023-02-07T02:27:43.728Z,103281.28
2023-02-07T02:30:37.986Z,103280.03
2023-02-07T02:33:14.600Z,103296.59
2023-02-07T02:36:10.319Z,103300.91
2023-02-07T02:38:52.113Z,103300.41
2023-02-07T02:41:24.801Z,103297.88
2023-02-07T02:44:01.627Z,103290.09
2023-02-07T02:46:31.690Z,103277.22
2023-02-07T02:48:58.445Z,103275.72
2023-02-07T02:51:24.814Z,103284.31
2023-02-07T02:53:55.493Z,103280.63
2023-02-07T02:56:55.887Z,103282.66
2023-02-07T02:59:28.278Z,103275.50
2023-02-07T03:02:17.902Z,103271.47
2023-02-07T03:05:16.378Z,103269.94
2023-02-07T03:07:52.761Z,103272.31
2023-02-07T03:10:40.583Z,103279.16
2023-02-07T03:13:27.075Z,103275.19
2023-02-07T03:16:04.178Z,103271.81
2023-02-07T03:19:13.409Z,103282.66
2023-02-07T03:21:45.916Z,103277.22
2023-02-07T03:24:20.074Z,103281.53
2023-02-07T03:26:47.069Z,103284.31
2023-02-07T03:29:15.131Z,103281.53
2023-02-07T03:31:43.688Z,103281.97
2023-02-07T03:34:17.816Z,103284.50
2023-02-07T03:37:33.765Z,103286.34
2023-02-07T03:40:00.263Z,103281.47
2023-02-07T03:42:33.180Z,103280.16
2023-02-07T03:45:01.111Z,103287.53
2023-02-07T03:47:27.772Z,103287.78
2023-02-07T03:49:54.655Z,103291.94
2023-02-07T03:52:21.058Z,103290.00
2023-02-07T03:54:47.450Z,103281.81
2023-02-07T03:57:13.939Z,103286.56
2023-02-07T03:59:40.382Z,103281.34
2023-02-07T04:02:06.823Z,103285.56
2023-02-07T04:04:33.222Z,103284.66
2023-02-07T04:06:59.601Z,103283.44
2023-02-07T04:09:26.141Z,103282.78
2023-02-07T04:11:52.588Z,103281.59
2023-02-07T04:14:22.352Z,103281.59
2023-02-07T04:16:49.288Z,103280.91
2023-02-07T04:19:16.333Z,103272.31
2023-02-07T04:21:42.852Z,103278.56
2023-02-07T04:24:09.534Z,103278.56
2023-02-07T04:26:35.966Z,103271.34
2023-02-07T04:29:02.358Z,103264.13
2023-02-07T04:31:28.819Z,103270.84
2023-02-07T04:33:55.248Z,103267.88
2023-02-07T04:36:22.645Z,103266.63
2023-02-07T04:38:49.177Z,103266.63
2023-02-07T04:41:15.616Z,103258.94
2023-02-07T04:43:41.996Z,103260.69
2023-02-07T04:46:08.871Z,103269.38
2023-02-07T04:48:37.648Z,103261.47
2023-02-07T04:51:05.131Z,103249.59
2023-02-07T04:53:31.524Z,103253.66
2023-02-07T04:55:57.948Z,103254.00
2023-02-07T04:58:24.549Z,103254.00
2023-02-07T05:00:52.872Z,103255.69
2023-02-07T05:03:19.352Z,103251.38
2023-02-07T05:05:45.906Z,103245.97
2023-02-07T05:08:13.034Z,103259.06
2023-02-07T05:10:39.911Z,103263.75
2023-02-07T05:13:07.220Z,103261.06
2023-02-07T05:15:33.659Z,103257.75
2023-02-07T05:18:00.072Z,103255.81
2023-02-07T05:20:26.997Z,103264.63
2023-02-07T05:22:53.440Z,103255.69
2023-02-07T05:25:19.811Z,103258.75
2023-02-07T05:27:46.296Z,103258.34
2023-02-07T05:30:13.248Z,103254.75
2023-02-07T05:32:58.413Z,103246.38
2023-02-07T05:35:24.806Z,103256.63
2023-02-07T05:37:51.200Z,103255.41
2023-02-07T05:40:17.615Z,103268.94
2023-02-07T05:42:43.994Z,103273.59
2023-02-07T05:45:11.393Z,103272.66
2023-02-07T05:47:37.923Z,103282.16
2023-02-07T05:50:04.633Z,103283.97
2023-02-07T05:52:31.037Z,103278.75
2023-02-07T05:54:57.488Z,103283.41
2023-02-07T05:57:23.968Z,103295.22
2023-02-07T05:59:50.353Z,103296.84
2023-02-07T06:02:17.001Z,103291.47
2023-02-07T06:04:43.405Z,103296.44
2023-02-07T06:07:09.882Z,103295.22
2023-02-07T06:09:36.253Z,103301.44
2023-02-07T06:12:05.175Z,103293.66
2023-02-07T06:14:31.684Z,103303.31
2023-02-07T06:16:58.068Z,103297.06
2023-02-07T06:19:24.441Z,103310.09
2023-02-07T06:21:50.836Z,103308.78
2023-02-07T06:24:17.296Z,103308.31
2023-02-07T06:26:44.370Z,103310.19
2023-02-07T06:29:10.808Z,103314.03
2023-02-07T06:31:37.286Z,103312.41
2023-02-07T06:34:03.997Z,103318.44
2023-02-07T06:36:30.401Z,103316.00
2023-02-07T06:38:57.355Z,103320.03
2023-02-07T06:41:23.758Z,103317.13
2023-02-07T06:43:50.123Z,103324.69
2023-02-07T06:46:16.538Z,103321.38
2023-02-07T06:48:42.979Z,103324.34
2023-02-07T06:51:09.383Z,103323.03
2023-02-07T06:53:35.823Z,103325.94
2023-02-07T06:56:02.578Z,103325.41
2023-02-07T06:58:29.027Z,103328.41
2023-02-07T07:00:55.461Z,103328.25
2023-02-07T07:03:26.906Z,103326.44
2023-02-07T07:05:53.318Z,103326.44
2023-02-07T07:08:19.793Z,103326.34
2023-02-07T07:10:46.188Z,103337.69
2023-02-07T07:13:15.485Z,103331.19
2023-02-07T07:15:41.924Z,103338.28
2023-02-07T07:18:08.318Z,103346.81
2023-02-07T07:20:34.770Z,103343.00
2023-02-07T07:23:01.163Z,103336.88
2023-02-07T07:25:27.578Z,103335.31
2023-02-07T07:27:54.054Z,103332.56
2023-02-07T07:30:21.429Z,103339.78
2023-02-07T07:32:48.926Z,103345.88
2023-02-07T07:35:15.505Z,103332.53
2023-02-07T07:37:42.130Z,103337.94
2023-02-07T07:40:09.369Z,103338.91
2023-02-07T07:42:36.826Z,103346.09
2023-02-07T07:45:03.674Z,103346.09
2023-02-07T07:47:30.079Z,103346.31
2023-02-07T07:49:56.544Z,103343.81
2023-02-07T07:52:22.931Z,103343.81
2023-02-07T07:54:49.365Z,103342.59
2023-02-07T07:57:15.781Z,103344.84
2023-02-07T07:59:42.152Z,103336.88
2023-02-07T08:02:15.057Z,103334.19
2023-02-07T08:04:41.611Z,103336.50
2023-02-07T08:07:08.094Z,103339.06
2023-02-07T08:09:34.480Z,103343.22
2023-02-07T08:12:00.868Z,103346.09
2023-02-07T08:14:27.244Z,103352.72
2023-02-07T08:16:53.648Z,103349.53
2023-02-07T08:19:20.053Z,103353.72
2023-02-07T08:21:46.524Z,103354.38
2023-02-07T08:24:12.928Z,103346.19
2023-02-07T08:26:39.351Z,103343.00
2023-02-07T08:29:05.785Z,103339.44
2023-02-07T08:31:32.325Z,103347.66
2023-02-07T08:33:58.753Z,103340.56
2023-02-07T08:36:25.213Z,103347.09
2023-02-07T08:38:51.913Z,103347.69
2023-02-07T08:41:18.332Z,103352.66
2023-02-07T08:43:44.725Z,103349.78
2023-02-07T08:46:11.236Z,103347.28
2023-02-07T08:48:37.695Z,103348.63
2023-02-07T08:51:06.193Z,103350.22
2023-02-07T08:53:32.738Z,103343.78
2023-02-07T08:55:59.173Z,103345.22
2023-02-07T08:58:25.695Z,103343.16
2023-02-07T09:00:52.247Z,103337.06
2023-02-07T09:03:18.645Z,103340.50
2023-02-07T09:05:45.139Z,103346.44
2023-02-07T09:08:11.533Z,103353.03
2023-02-07T09:10:38.554Z,103337.41
2023-02-07T09:13:05.189Z,103336.75
2023-02-07T09:15:31.589Z,103327.00
2023-02-07T09:17:57.986Z,103319.88
2023-02-07T09:20:24.446Z,103321.38
2023-02-07T09:23:09.481Z,103327.63
2023-02-07T09:25:38.120Z,103324.16
2023-02-07T09:28:04.696Z,103326.56
2023-02-07T09:30:31.174Z,103326.38
2023-02-07T09:32:58.270Z,103328.00
2023-02-07T09:35:24.927Z,103322.03
2023-02-07T09:37:54.736Z,103323.00
2023-02-07T09:40:22.173Z,103326.13
2023-02-07T09:42:57.308Z,103321.03
2023-02-07T09:45:27.296Z,103334.41
2023-02-07T09:47:59.883Z,103332.50
2023-02-07T09:50:32.790Z,103337.19
2023-02-07T09:53:04.501Z,103333.38
2023-02-07T09:55:40.194Z,103334.94
2023-02-07T09:58:15.055Z,103330.72
2023-02-07T10:00:42.508Z,103335.06
2023-02-07T10:03:18.810Z,103332.47
2023-02-07T10:06:01.483Z,103317.66
2023-02-07T10:08:39.753Z,103321.59
2023-02-07T10:11:10.499Z,103310.72
2023-02-07T10:14:07.248Z,103309.00
2023-02-07T10:16:54.876Z,103309.50
2023-02-07T10:19:36.468Z,103309.50
2023-02-07T10:22:08.784Z,103313.72
2023-02-07T10:24:38.120Z,103308.66
2023-02-07T10:27:13.450Z,103310.97
2023-02-07T10:29:57.060Z,103320.22
2023-02-07T10:32:26.336Z,103310.28
2023-02-07T10:34:56.217Z,103315.59
2023-02-07T10:37:25.802Z,103314.97
2023-02-07T10:40:29.056Z,103314.09
2023-02-07T10:43:10.576Z,103321.53
2023-02-07T10:45:39.676Z,103318.09
2023-02-07T10:48:15.666Z,103309.75
2023-02-07T10:50:42.145Z,103309.34
2023-02-07T10:53:08.626Z,103305.38
2023-02-07T10:55:46.321Z,103302.19
2023-02-07T10:58:23.094Z,103307.56
2023-02-07T11:00:51.939Z,103299.63
2023-02-07T11:03:23.316Z,103289.16
2023-02-07T11:05:55.367Z,103294.88
2023-02-07T11:08:24.578Z,103291.16
2023-02-07T11:10:53.376Z,103296.31
2023-02-07T11:13:23.467Z,103292.00
2023-02-07T11:16:04.601Z,103290.28
2023-02-07T11:18:44.758Z,103283.97
2023-02-07T11:21:24.829Z,103276.28
2023-02-07T11:23:52.259Z,103287.22
2023-02-07T11:26:20.509Z,103293.34
2023-02-07T11:28:47.372Z,103302.81
2023-02-07T11:31:17.967Z,103298.56
2023-02-07T11:33:44.463Z,103305.16
2023-02-07T11:36:12.370Z,103295.66
2023-02-07T11:38:50.361Z,103299.19
2023-02-07T11:41:19.057Z,103297.81
2023-02-07T11:43:55.570Z,103293.13
2023-02-07T11:46:24.173Z,103294.56
2023-02-07T11:48:53.854Z,103294.34
2023-02-07T11:51:20.243Z,103294.09
2023-02-07T11:53:56.018Z,103293.63
2023-02-07T11:56:28.344Z,103300.34
2023-02-07T11:58:55.275Z,103288.06
2023-02-07T12:01:28.823Z,103283.88
2023-02-07T12:04:00.629Z,103290.81
2023-02-07T12:06:43.777Z,103282.94
2023-02-07T12:09:22.386Z,103284.78
2023-02-07T12:11:49.376Z,103273.19
2023-02-07T12:14:32.229Z,103269.47
2023-02-07T12:17:00.102Z,103272.28
2023-02-07T12:19:33.955Z,103272.06
2023-02-07T12:22:08.163Z,103267.41
2023-02-07T12:24:42.817Z,103263.91
2023-02-07T12:27:09.115Z,103261.63
2023-02-07T12:30:04.086Z,103260.22
2023-02-07T12:32:42.782Z,103252.03
2023-02-07T12:35:23.197Z,103249.06
2023-02-07T12:38:12.112Z,103252.03
2023-02-07T12:40:54.172Z,103244.09
2023-02-07T12:43:22.660Z,103243.34
2023-02-07T12:46:01.140Z,103235.94
2023-02-07T12:48:52.089Z,103235.38
2023-02-07T12:51:27.733Z,103234.69
2023-02-07T12:54:08.380Z,103228.66
2023-02-07T12:56:50.193Z,103226.22
2023-02-07T12:59:40.462Z,103228.22
2023-02-07T13:02:24.889Z,103230.84
2023-02-07T13:05:10.406Z,103232.47
2023-02-07T13:07:51.901Z,103223.03
2023-02-07T13:10:23.190Z,103223.69
2023-02-07T13:13:06.144Z,103219.94
2023-02-07T13:15:47.699Z,103222.41
2023-02-07T13:18:38.992Z,103217.66
2023-02-07T13:21:31.162Z,103227.13
2023-02-07T13:24:01.380Z,103220.63
2023-02-07T13:26:28.398Z,103226.00
2023-02-07T13:28:57.110Z,103217.47
2023-02-07T13:31:35.789Z,103216.00
2023-02-07T13:34:03.396Z,103220.16
2023-02-07T13:36:40.970Z,103224.63
2023-02-07T13:39:28.656Z,103222.13
2023-02-07T13:42:10.822Z,103228.22
2023-02-07T13:44:45.812Z,103228.09
2023-02-07T13:47:22.281Z,103217.31
2023-02-07T13:50:12.353Z,103221.03
2023-02-07T13:52:44.587Z,103213.50
2023-02-07T13:55:17.329Z,103215.41
2023-02-07T13:58:02.847Z,103205.38
2023-02-07T14:00:57.289Z,103196.09
2023-02-07T14:03:28.884Z,103206.28
2023-02-07T14:06:14.993Z,103210.59
2023-02-07T14:08:42.771Z,103206.00
2023-02-07T14:11:33.957Z,103197.63
2023-02-07T14:14:27.476Z,103194.25
2023-02-07T14:16:53.785Z,103180.22
2023-02-07T14:19:45.456Z,103175.22
2023-02-07T14:22:32.436Z,103162.53
2023-02-07T14:24:58.874Z,103153.06
2023-02-07T14:27:39.308Z,103143.75
2023-02-07T14:30:11.810Z,103136.91
2023-02-07T14:33:13.630Z,103136.13
2023-02-07T14:36:25.328Z,103138.91
2023-02-07T14:39:29.823Z,103139.94
2023-02-07T14:42:11.334Z,103133.88
2023-02-07T14:44:40.026Z,103125.00
2023-02-07T14:47:08.092Z,103140.94
2023-02-07T14:49:46.644Z,103152.53
2023-02-07T14:52:15.919Z,103162.69
2023-02-07T14:54:46.448Z,103165.22
2023-02-07T14:57:41.273Z,103176.44
2023-02-07T15:00:07.523Z,103177.78
2023-02-07T15:02:38.491Z,103172.84
2023-02-07T15:05:13.950Z,103176.28
2023-02-07T15:07:43.375Z,103178.44
2023-02-07T15:10:16.231Z,103178.00
2023-02-07T15:12:45.779Z,103176.09
2023-02-07T15:15:20.951Z,103177.84
2023-02-07T15:17:48.401Z,103172.75
2023-02-07T15:20:17.434Z,103169.41
2023-02-07T15:22:47.763Z,103174.47
2023-02-07T15:25:14.609Z,103171.94
2023-02-07T15:27:40.988Z,103174.72
2023-02-07T15:30:11.526Z,103170.94
2023-02-07T15:32:42.554Z,103170.03
2023-02-07T15:35:14.022Z,103172.78
2023-02-07T15:37:40.401Z,103176.88
2023-02-07T15:40:07.227Z,103191.22
2023-02-07T15:42:33.703Z,103184.38
2023-02-07T15:45:00.114Z,103178.47
2023-02-07T15:47:29.603Z,103184.34
2023-02-07T15:50:03.096Z,103186.69
2023-02-07T15:52:41.315Z,103184.66
2023-02-07T15:55:36.280Z,103184.66
2023-02-07T15:58:04.721Z,103189.88
2023-02-07T16:00:37.125Z,103184.81
2023-02-07T16:03:06.275Z,103187.75
2023-02-07T16:05:38.599Z,103181.75
2023-02-07T16:08:08.953Z,103177.16
2023-02-07T16:10:38.268Z,103179.06
2023-02-07T16:13:19.408Z,103183.03
2023-02-07T16:15:58.542Z,103178.63
2023-02-07T16:18:42.516Z,103179.09
2023-02-07T16:21:14.783Z,103181.53
2023-02-07T16:23:41.084Z,103190.84
2023-02-07T16:26:07.574Z,103192.28
2023-02-07T16:28:34.053Z,103191.13
2023-02-07T16:31:00.634Z,103186.75
2023-02-07T16:33:27.042Z,103189.81
2023-02-07T16:35:53.409Z,103190.31
2023-02-07T16:38:19.813Z,103184.03
2023-02-07T16:40:46.236Z,103185.19
2023-02-07T16:43:30.728Z,103194.72
2023-02-07T16:45:57.130Z,103204.25
2023-02-07T16:48:23.809Z,103201.28
2023-02-07T16:50:50.235Z,103207.31
2023-02-07T16:53:16.632Z,103206.59
2023-02-07T16:55:43.039Z,103208.47
2023-02-07T16:58:18.708Z,103217.50
2023-02-07T17:00:45.097Z,103217.97
2023-02-07T17:03:15.306Z,103217.06
2023-02-07T17:05:41.766Z,103209.66
2023-02-07T17:08:13.628Z,103211.50
2023-02-07T17:10:40.524Z,103215.47
2023-02-07T17:13:07.304Z,103217.28
2023-02-07T17:15:33.846Z,103213.59
2023-02-07T17:18:00.214Z,103217.75
2023-02-07T17:20:30.361Z,103225.88
2023-02-07T17:22:56.817Z,103218.91
2023-02-07T17:25:25.217Z,103227.03
2023-02-07T17:27:51.806Z,103228.88
2023-02-07T17:30:23.713Z,103219.81
2023-02-07T17:32:50.232Z,103226.31
2023-02-07T17:35:16.745Z,103228.56
2023-02-07T17:37:43.273Z,103220.00
2023-02-07T17:40:35.234Z,103225.78
2023-02-07T17:43:02.209Z,103225.09
2023-02-07T17:45:29.454Z,103226.00
2023-02-07T17:47:59.279Z,103227.63
2023-02-07T17:50:29.424Z,103229.97
2023-02-07T17:52:56.876Z,103234.06
2023-02-07T17:55:23.291Z,103235.41
2023-02-07T17:57:49.850Z,103230.31
2023-02-07T18:00:21.772Z,103224.75
2023-02-07T18:02:48.889Z,103221.53
2023-02-07T18:05:16.452Z,103230.06
2023-02-07T18:07:44.215Z,103225.22
2023-02-07T18:10:13.618Z,103228.66
2023-02-07T18:12:40.032Z,103222.16
2023-02-07T18:15:08.879Z,103226.97
2023-02-07T18:17:36.738Z,103223.75
2023-02-07T18:20:05.598Z,103223.97
2023-02-07T18:22:32.031Z,103221.66
2023-02-07T18:24:58.453Z,103222.38
2023-02-07T18:27:25.031Z,103216.31
2023-02-07T18:29:51.404Z,103219.31
2023-02-07T18:32:17.791Z,103213.94
2023-02-07T18:34:45.047Z,103221.59
2023-02-07T18:37:11.425Z,103213.44
2023-02-07T18:39:37.873Z,103221.97
2023-02-07T18:42:04.262Z,103220.31
2023-02-07T18:44:30.697Z,103221.44
2023-02-07T18:46:57.089Z,103212.19
2023-02-07T18:49:23.490Z,103214.50
2023-02-07T18:51:50.033Z,103216.28
2023-02-07T18:54:16.456Z,103220.66
2023-02-07T18:56:47.374Z,103224.81
2023-02-07T18:59:17.172Z,103221.47
2023-02-07T19:01:47.951Z,103214.72
2023-02-07T19:04:15.649Z,103216.78
2023-02-07T19:06:42.350Z,103220.28
2023-02-07T19:09:09.156Z,103219.16
2023-02-07T19:11:39.623Z,103215.88
2023-02-07T19:14:15.355Z,103219.13
2023-02-07T19:16:42.321Z,103217.47
2023-02-07T19:19:10.573Z,103213.47
2023-02-07T19:21:37.089Z,103213.47
2023-02-07T19:24:06.778Z,103214.88
2023-02-07T19:26:33.281Z,103219.03
2023-02-07T19:29:00.563Z,103213.91
2023-02-07T19:31:29.210Z,103206.59
2023-02-07T19:33:56.645Z,103206.81
2023-02-07T19:36:25.577Z,103201.72
2023-02-07T19:38:54.118Z,103217.25
2023-02-07T19:41:22.041Z,103208.25
2023-02-07T19:43:48.763Z,103206.09
2023-02-07T19:46:15.474Z,103205.72
2023-02-07T19:48:42.178Z,103206.59
2023-02-07T19:51:19.936Z,103203.06
2023-02-07T19:53:48.050Z,103199.13
2023-02-07T19:56:14.471Z,103201.72
2023-02-07T19:58:45.289Z,103203.56
2023-02-07T20:01:11.985Z,103198.97
2023-02-07T20:03:39.377Z,103200.53
2023-02-07T20:06:10.382Z,103203.63
2023-02-07T20:08:38.742Z,103198.88
2023-02-07T20:11:08.579Z,103205.31
2023-02-07T20:13:36.438Z,103201.06
2023-02-07T20:16:12.633Z,103202.19
2023-02-07T20:18:39.202Z,103204.84
2023-02-07T20:21:11.707Z,103200.47
2023-02-07T20:23:46.708Z,103202.00
2023-02-07T20:26:17.092Z,103202.38
2023-02-07T20:28:43.527Z,103205.91
2023-02-07T20:31:12.730Z,103204.25
2023-02-07T20:33:40.291Z,103211.81
2023-02-07T20:36:07.858Z,103207.16
2023-02-07T20:38:34.593Z,103208.06
2023-02-07T20:41:15.975Z,103211.63
2023-02-07T20:43:42.910Z,103208.44
2023-02-07T20:46:12.478Z,103211.38
2023-02-07T20:48:39.844Z,103212.22
2023-02-07T20:51:10.303Z,103223.50
2023-02-07T20:53:41.242Z,103222.38
2023-02-07T20:56:17.149Z,103228.88
2023-02-07T20:58:47.002Z,103227.47
2023-02-07T21:01:16.040Z,103228.16
2023-02-07T21:03:45.113Z,103218.72
2023-02-07T21:06:12.989Z,103224.97
2023-02-07T21:08:39.856Z,103222.88
2023-02-07T21:11:07.825Z,103218.16
2023-02-07T21:13:34.985Z,103219.31
2023-02-07T21:16:03.826Z,103214.47
2023-02-07T21:18:31.372Z,103218.00
2023-02-07T21:20:57.935Z,103219.34
2023-02-07T21:23:24.555Z,103205.03
2023-02-07T21:25:50.997Z,103211.78
2023-02-07T21:28:17.474Z,103205.97
2023-02-07T21:30:43.981Z,103197.22
2023-02-07T21:33:10.409Z,103196.69
2023-02-07T21:35:36.787Z,103189.97
2023-02-07T21:38:03.272Z,103188.88
2023-02-07T21:40:29.736Z,103199.50
2023-02-07T21:42:56.315Z,103198.84
2023-02-07T21:45:22.717Z,103205.84
2023-02-07T21:47:49.142Z,103195.75
2023-02-07T21:50:15.552Z,103203.88
2023-02-07T21:52:41.986Z,103195.38
2023-02-07T21:55:08.438Z,103194.84
2023-02-07T21:57:34.843Z,103196.47
2023-02-07T22:00:01.215Z,103202.38
2023-02-07T22:02:27.892Z,103214.09
2023-02-07T22:04:54.312Z,103217.31
2023-02-07T22:07:20.770Z,103214.53
2023-02-07T22:09:50.164Z,103216.84
2023-02-07T22:12:16.569Z,103216.06
2023-02-07T22:14:42.943Z,103207.56
2023-02-07T22:17:10.119Z,103201.94
2023-02-07T22:19:36.603Z,103197.47
2023-02-07T22:22:02.968Z,103201.94
2023-02-07T22:24:31.635Z,103212.34
2023-02-07T22:26:58.016Z,103208.44
2023-02-07T22:29:24.387Z,103203.34
2023-02-07T22:31:50.848Z,103207.56
2023-02-07T22:34:17.395Z,103204.19
2023-02-07T22:36:45.137Z,103207.50
2023-02-07T22:39:13.274Z,103201.28
2023-02-07T22:41:39.640Z,103202.00
2023-02-07T22:44:06.068Z,103200.81
2023-02-07T22:46:32.512Z,103202.00
2023-02-07T22:48:59.061Z,103198.94
2023-02-07T22:51:32.336Z,103202.97
2023-02-07T22:54:01.526Z,103199.31
2023-02-07T22:56:28.224Z,103199.78
2023-02-07T22:58:55.215Z,103206.69
2023-02-07T23:01:23.085Z,103201.38
2023-02-07T23:03:50.347Z,103204.50
2023-02-07T23:06:17.153Z,103207.56
2023-02-07T23:08:43.608Z,103205.94
2023-02-07T23:11:12.578Z,103214.59
2023-02-07T23:13:40.773Z,103222.28
2023-02-07T23:16:15.119Z,103219.25
2023-02-07T23:18:41.741Z,103222.69
2023-02-07T23:21:10.014Z,103221.00
2023-02-07T23:23:37.088Z,103225.06
2023-02-07T23:26:09.854Z,103219.56
2023-02-07T23:28:37.307Z,103219.19
2023-02-07T23:31:05.849Z,103232.53
2023-02-07T23:33:32.659Z,103231.50
2023-02-07T23:35:59.461Z,103232.03
2023-02-07T23:38:26.111Z,103230.44
2023-02-07T23:40:52.604Z,103225.34
2023-02-07T23:43:19.015Z,103220.69
2023-02-07T23:45:45.416Z,103216.50
2023-02-07T23:48:11.895Z,103213.22
2023-02-07T23:50:38.673Z,103219.28
2023-02-07T23:53:05.478Z,103223.44
2023-02-07T23:55:31.857Z,103213.28
2023-02-07T23:57:58.264Z,103214.97
